Exeter, Illinois
Current Conditions -  °F | °C
As of 7:35 AM on Friday 28 Nov 2014 (Local Time) from KIJX Reporting Station
Scattered Clouds Scattered Clouds  
Wind Chill: 14°   Ceiling: Unl
Heat Index: 24°   Visibility: 10mi
Dew Point: 20°   Wind: 9mph
Humidity: 83%   Direction: 140°SE
Pressure: 30.19"   Gusts: NA
Location:  39.7355°N, 90.519°W
Report Text: KIJX 281335Z AUTO 14008KT 10SM SCT120 M04/M07 A3019 RMK AO2 T10441069
Loading
Personal Weather Stations






























Interactive Weather Map New forecast layout! Learn more

10-Day Weather Forecast

Advertisements
Track Severe Weather on mobile